sensor_id;sensor_type;location;lat;lon;timestamp;temperature;humidity
7472;DHT22;3777;48.722;8.110;2022-12-18T00:02:21;-0.60;99.90
7472;DHT22;3777;48.722;8.110;2022-12-18T00:04:48;-0.50;99.90
7472;DHT22;3777;48.722;8.110;2022-12-18T00:07:16;-0.40;99.90
7472;DHT22;3777;48.722;8.110;2022-12-18T00:09:43;-0.30;99.90
7472;DHT22;3777;48.722;8.110;2022-12-18T00:12:10;-0.30;99.90
7472;DHT22;3777;48.722;8.110;2022-12-18T00:14:37;-0.20;99.90
7472;DHT22;3777;48.722;8.110;2022-12-18T00:17:04;-0.20;99.90
7472;DHT22;3777;48.722;8.110;2022-12-18T00:19:31;-0.20;99.90
7472;DHT22;3777;48.722;8.110;2022-12-18T00:21:58;-0.30;99.90
7472;DHT22;3777;48.722;8.110;2022-12-18T00:24:26;-0.20;99.90
7472;DHT22;3777;48.722;8.110;2022-12-18T00:26:53;-0.20;99.90
7472;DHT22;3777;48.722;8.110;2022-12-18T00:29:20;-0.20;99.90
7472;DHT22;3777;48.722;8.110;2022-12-18T00:31:47;-0.20;99.90
7472;DHT22;3777;48.722;8.110;2022-12-18T00:34:14;-0.20;99.90
7472;DHT22;3777;48.722;8.110;2022-12-18T00:36:41;-0.10;99.90
7472;DHT22;3777;48.722;8.110;2022-12-18T00:39:10;-0.20;99.90
7472;DHT22;3777;48.722;8.110;2022-12-18T00:41:39;-0.20;99.90
7472;DHT22;3777;48.722;8.110;2022-12-18T00:44:23;-0.20;99.90
7472;DHT22;3777;48.722;8.110;2022-12-18T00:46:50;-0.30;99.90
7472;DHT22;3777;48.722;8.110;2022-12-18T00:49:18;-0.20;99.90
7472;DHT22;3777;48.722;8.110;2022-12-18T00:51:45;-0.20;99.90
7472;DHT22;3777;48.722;8.110;2022-12-18T00:54:13;-0.30;99.90
7472;DHT22;3777;48.722;8.110;2022-12-18T00:56:41;-0.30;99.90
7472;DHT22;3777;48.722;8.110;2022-12-18T00:59:08;-0.20;99.90
7472;DHT22;3777;48.722;8.110;2022-12-18T01:01:35;-0.20;99.90
7472;DHT22;3777;48.722;8.110;2022-12-18T01:04:03;-0.30;99.90
7472;DHT22;3777;48.722;8.110;2022-12-18T01:06:30;-0.30;99.90
7472;DHT22;3777;48.722;8.110;2022-12-18T01:08:57;-0.30;99.90
7472;DHT22;3777;48.722;8.110;2022-12-18T01:11:24;-0.20;99.90
7472;DHT22;3777;48.722;8.110;2022-12-18T01:13:54;-0.30;99.90
7472;DHT22;3777;48.722;8.110;2022-12-18T01:16:22;-0.30;99.90
7472;DHT22;3777;48.722;8.110;2022-12-18T01:18:51;-0.30;99.90
7472;DHT22;3777;48.722;8.110;2022-12-18T01:21:19;-0.30;99.90
7472;DHT22;3777;48.722;8.110;2022-12-18T01:23:46;-0.30;99.90
7472;DHT22;3777;48.722;8.110;2022-12-18T01:26:17;-0.20;99.90
7472;DHT22;3777;48.722;8.110;2022-12-18T01:28:44;-0.30;99.90
7472;DHT22;3777;48.722;8.110;2022-12-18T01:31:15;-0.30;99.90
7472;DHT22;3777;48.722;8.110;2022-12-18T01:33:42;-0.30;99.90
7472;DHT22;3777;48.722;8.110;2022-12-18T01:36:15;-0.20;99.90
7472;DHT22;3777;48.722;8.110;2022-12-18T01:38:43;-0.30;99.90
7472;DHT22;3777;48.722;8.110;2022-12-18T01:41:11;-0.30;99.90
7472;DHT22;3777;48.722;8.110;2022-12-18T01:43:47;-0.30;99.90
7472;DHT22;3777;48.722;8.110;2022-12-18T01:46:17;-0.30;99.90
7472;DHT22;3777;48.722;8.110;2022-12-18T01:48:46;-0.30;99.90
7472;DHT22;3777;48.722;8.110;2022-12-18T01:51:13;-0.30;99.90
7472;DHT22;3777;48.722;8.110;2022-12-18T01:53:42;-0.30;99.90
7472;DHT22;3777;48.722;8.110;2022-12-18T01:56:13;-0.30;99.90
7472;DHT22;3777;48.722;8.110;2022-12-18T01:58:46;-0.30;99.90
7472;DHT22;3777;48.722;8.110;2022-12-18T02:01:16;-0.20;99.90
7472;DHT22;3777;48.722;8.110;2022-12-18T02:03:44;-0.20;99.90
7472;DHT22;3777;48.722;8.110;2022-12-18T02:06:15;-0.30;99.90
7472;DHT22;3777;48.722;8.110;2022-12-18T02:09:02;-0.20;99.90
7472;DHT22;3777;48.722;8.110;2022-12-18T02:11:40;-0.30;99.90
7472;DHT22;3777;48.722;8.110;2022-12-18T02:14:18;-0.20;99.90
7472;DHT22;3777;48.722;8.110;2022-12-18T02:16:55;-0.20;99.90
7472;DHT22;3777;48.722;8.110;2022-12-18T02:19:51;-0.20;99.90
7472;DHT22;3777;48.722;8.110;2022-12-18T02:22:29;-0.20;99.90
7472;DHT22;3777;48.722;8.110;2022-12-18T02:25:10;-0.20;99.90
7472;DHT22;3777;48.722;8.110;2022-12-18T02:27:39;-0.20;99.90
7472;DHT22;3777;48.722;8.110;2022-12-18T02:30:08;-0.20;99.90
7472;DHT22;3777;48.722;8.110;2022-12-18T02:32:39;-0.10;99.90
7472;DHT22;3777;48.722;8.110;2022-12-18T02:35:10;-0.10;99.90
7472;DHT22;3777;48.722;8.110;2022-12-18T02:37:39;-0.10;99.90
7472;DHT22;3777;48.722;8.110;2022-12-18T02:40:08;-0.20;99.90
7472;DHT22;3777;48.722;8.110;2022-12-18T02:42:36;-0.20;99.90
7472;DHT22;3777;48.722;8.110;2022-12-18T02:45:05;-0.20;99.90
7472;DHT22;3777;48.722;8.110;2022-12-18T02:47:35;-0.20;99.90
7472;DHT22;3777;48.722;8.110;2022-12-18T02:50:10;-0.20;99.90
7472;DHT22;3777;48.722;8.110;2022-12-18T02:52:44;-0.20;99.90
7472;DHT22;3777;48.722;8.110;2022-12-18T02:55:22;-0.20;99.90
7472;DHT22;3777;48.722;8.110;2022-12-18T02:57:55;-0.20;99.90
7472;DHT22;3777;48.722;8.110;2022-12-18T03:00:30;-0.20;99.90
7472;DHT22;3777;48.722;8.110;2022-12-18T03:03:02;-0.30;99.90
7472;DHT22;3777;48.722;8.110;2022-12-18T03:05:36;-0.30;99.90
7472;DHT22;3777;48.722;8.110;2022-12-18T03:08:07;-0.30;99.90
7472;DHT22;3777;48.722;8.110;2022-12-18T03:10:39;-0.30;99.90
7472;DHT22;3777;48.722;8.110;2022-12-18T03:13:11;-0.30;99.90
7472;DHT22;3777;48.722;8.110;2022-12-18T03:15:44;-0.30;99.90
7472;DHT22;3777;48.722;8.110;2022-12-18T03:18:17;-0.40;99.90
7472;DHT22;3777;48.722;8.110;2022-12-18T03:20:47;-0.40;99.90
7472;DHT22;3777;48.722;8.110;2022-12-18T03:23:18;-0.40;99.90
7472;DHT22;3777;48.722;8.110;2022-12-18T03:25:50;-0.40;99.90
7472;DHT22;3777;48.722;8.110;2022-12-18T03:28:21;-0.40;99.90
7472;DHT22;3777;48.722;8.110;2022-12-18T03:30:54;-0.40;99.90
7472;DHT22;3777;48.722;8.110;2022-12-18T03:33:26;-0.30;99.90
7472;DHT22;3777;48.722;8.110;2022-12-18T03:35:54;-0.30;99.90
7472;DHT22;3777;48.722;8.110;2022-12-18T03:38:21;-0.20;99.90
7472;DHT22;3777;48.722;8.110;2022-12-18T03:40:56;-0.30;99.90
7472;DHT22;3777;48.722;8.110;2022-12-18T03:43:35;-0.30;99.90
7472;DHT22;3777;48.722;8.110;2022-12-18T03:46:09;-0.30;99.90
7472;DHT22;3777;48.722;8.110;2022-12-18T03:48:41;-0.30;99.90
7472;DHT22;3777;48.722;8.110;2022-12-18T03:51:14;-0.40;99.90
7472;DHT22;3777;48.722;8.110;2022-12-18T03:53:48;-0.40;99.90
7472;DHT22;3777;48.722;8.110;2022-12-18T03:56:18;-0.40;99.90
7472;DHT22;3777;48.722;8.110;2022-12-18T03:58:48;-0.40;99.90
7472;DHT22;3777;48.722;8.110;2022-12-18T04:01:53;-0.40;99.90
7472;DHT22;3777;48.722;8.110;2022-12-18T04:04:19;-0.50;99.90
7472;DHT22;3777;48.722;8.110;2022-12-18T04:06:47;-0.50;99.90
7472;DHT22;3777;48.722;8.110;2022-12-18T04:09:15;-0.50;99.90
7472;DHT22;3777;48.722;8.110;2022-12-18T04:11:42;-0.50;99.90
7472;DHT22;3777;48.722;8.110;2022-12-18T04:14:19;-0.50;99.90
7472;DHT22;3777;48.722;8.110;2022-12-18T04:17:07;-0.60;99.90
7472;DHT22;3777;48.722;8.110;2022-12-18T04:19:34;-0.70;99.90
7472;DHT22;3777;48.722;8.110;2022-12-18T04:22:00;-0.70;99.90
7472;DHT22;3777;48.722;8.110;2022-12-18T04:24:27;-0.70;99.90
7472;DHT22;3777;48.722;8.110;2022-12-18T04:26:54;-0.70;99.90
7472;DHT22;3777;48.722;8.110;2022-12-18T04:29:21;-0.70;99.90
7472;DHT22;3777;48.722;8.110;2022-12-18T04:31:48;-0.70;99.90
7472;DHT22;3777;48.722;8.110;2022-12-18T04:34:16;-0.70;99.90
7472;DHT22;3777;48.722;8.110;2022-12-18T04:36:43;-0.70;99.90
7472;DHT22;3777;48.722;8.110;2022-12-18T04:39:10;-0.70;99.90
7472;DHT22;3777;48.722;8.110;2022-12-18T04:41:37;-0.70;99.90
7472;DHT22;3777;48.722;8.110;2022-12-18T04:44:04;-0.70;99.90
7472;DHT22;3777;48.722;8.110;2022-12-18T04:46:31;-0.70;99.90
7472;DHT22;3777;48.722;8.110;2022-12-18T04:48:58;-0.70;99.90
7472;DHT22;3777;48.722;8.110;2022-12-18T04:51:27;-0.70;99.90
7472;DHT22;3777;48.722;8.110;2022-12-18T04:53:53;-0.60;99.90
7472;DHT22;3777;48.722;8.110;2022-12-18T04:56:21;-0.70;99.90
7472;DHT22;3777;48.722;8.110;2022-12-18T04:58:48;-0.70;99.90
7472;DHT22;3777;48.722;8.110;2022-12-18T05:01:16;-0.70;99.90
7472;DHT22;3777;48.722;8.110;2022-12-18T05:03:44;-0.90;99.90
7472;DHT22;3777;48.722;8.110;2022-12-18T05:06:11;-1.40;99.90
7472;DHT22;3777;48.722;8.110;2022-12-18T05:08:39;-1.30;99.90
7472;DHT22;3777;48.722;8.110;2022-12-18T05:11:08;-1.30;99.90
7472;DHT22;3777;48.722;8.110;2022-12-18T05:13:36;-1.20;99.90
7472;DHT22;3777;48.722;8.110;2022-12-18T05:16:03;-1.20;99.90
7472;DHT22;3777;48.722;8.110;2022-12-18T05:18:31;-1.50;99.90
7472;DHT22;3777;48.722;8.110;2022-12-18T05:20:58;-1.60;99.90
7472;DHT22;3777;48.722;8.110;2022-12-18T05:23:25;-1.60;99.90
7472;DHT22;3777;48.722;8.110;2022-12-18T05:25:55;-1.50;99.90
7472;DHT22;3777;48.722;8.110;2022-12-18T05:28:23;-1.60;99.90
7472;DHT22;3777;48.722;8.110;2022-12-18T05:30:52;-1.70;99.90
7472;DHT22;3777;48.722;8.110;2022-12-18T05:33:19;-1.80;99.90
7472;DHT22;3777;48.722;8.110;2022-12-18T05:35:50;-1.70;99.90
7472;DHT22;3777;48.722;8.110;2022-12-18T05:38:17;-1.60;99.90
7472;DHT22;3777;48.722;8.110;2022-12-18T05:40:44;-1.60;99.90
7472;DHT22;3777;48.722;8.110;2022-12-18T05:43:13;-1.50;99.90
7472;DHT22;3777;48.722;8.110;2022-12-18T05:45:43;-1.50;99.90
7472;DHT22;3777;48.722;8.110;2022-12-18T05:48:10;-1.50;99.90
7472;DHT22;3777;48.722;8.110;2022-12-18T05:50:42;-1.40;99.90
7472;DHT22;3777;48.722;8.110;2022-12-18T05:53:09;-1.30;99.90
7472;DHT22;3777;48.722;8.110;2022-12-18T05:55:37;-1.30;99.90
7472;DHT22;3777;48.722;8.110;2022-12-18T05:58:05;-1.40;99.90
7472;DHT22;3777;48.722;8.110;2022-12-18T06:00:35;-1.50;99.90
7472;DHT22;3777;48.722;8.110;2022-12-18T06:03:05;-1.70;99.90
7472;DHT22;3777;48.722;8.110;2022-12-18T06:05:34;-1.80;99.90
7472;DHT22;3777;48.722;8.110;2022-12-18T06:08:02;-1.70;99.90
7472;DHT22;3777;48.722;8.110;2022-12-18T06:10:30;-1.90;99.90
7472;DHT22;3777;48.722;8.110;2022-12-18T06:12:57;-1.80;99.90
7472;DHT22;3777;48.722;8.110;2022-12-18T06:15:24;-1.70;99.90
7472;DHT22;3777;48.722;8.110;2022-12-18T06:17:52;-1.70;99.90
7472;DHT22;3777;48.722;8.110;2022-12-18T06:20:19;-1.70;99.90
7472;DHT22;3777;48.722;8.110;2022-12-18T06:22:47;-1.60;99.90
7472;DHT22;3777;48.722;8.110;2022-12-18T06:25:14;-1.60;99.90
7472;DHT22;3777;48.722;8.110;2022-12-18T06:27:41;-1.60;99.90
7472;DHT22;3777;48.722;8.110;2022-12-18T06:30:09;-2.10;99.90
7472;DHT22;3777;48.722;8.110;2022-12-18T06:32:36;-2.00;99.90
7472;DHT22;3777;48.722;8.110;2022-12-18T06:35:05;-1.80;99.90
7472;DHT22;3777;48.722;8.110;2022-12-18T06:37:32;-1.70;99.90
7472;DHT22;3777;48.722;8.110;2022-12-18T06:39:59;-1.60;99.90
7472;DHT22;3777;48.722;8.110;2022-12-18T06:42:28;-1.60;99.90
7472;DHT22;3777;48.722;8.110;2022-12-18T06:44:55;-1.70;99.90
7472;DHT22;3777;48.722;8.110;2022-12-18T06:47:21;-1.60;99.90
7472;DHT22;3777;48.722;8.110;2022-12-18T06:49:48;-1.70;99.90
7472;DHT22;3777;48.722;8.110;2022-12-18T06:52:17;-1.50;99.90
7472;DHT22;3777;48.722;8.110;2022-12-18T06:54:44;-1.40;99.90
7472;DHT22;3777;48.722;8.110;2022-12-18T06:57:11;-1.30;99.90
7472;DHT22;3777;48.722;8.110;2022-12-18T06:59:37;-1.20;99.90
7472;DHT22;3777;48.722;8.110;2022-12-18T07:02:05;-1.00;99.90
7472;DHT22;3777;48.722;8.110;2022-12-18T07:04:32;-1.00;99.90
7472;DHT22;3777;48.722;8.110;2022-12-18T07:06:59;-1.00;99.90
7472;DHT22;3777;48.722;8.110;2022-12-18T07:09:27;-0.90;99.90
7472;DHT22;3777;48.722;8.110;2022-12-18T07:11:54;-0.90;99.90
7472;DHT22;3777;48.722;8.110;2022-12-18T07:14:21;-0.90;99.90
7472;DHT22;3777;48.722;8.110;2022-12-18T07:16:48;-1.00;99.90
7472;DHT22;3777;48.722;8.110;2022-12-18T07:19:15;-1.20;99.90
7472;DHT22;3777;48.722;8.110;2022-12-18T07:21:42;-1.10;99.90
7472;DHT22;3777;48.722;8.110;2022-12-18T07:24:09;-1.00;99.90
7472;DHT22;3777;48.722;8.110;2022-12-18T07:26:38;-1.00;99.90
7472;DHT22;3777;48.722;8.110;2022-12-18T07:29:05;-1.10;99.90
7472;DHT22;3777;48.722;8.110;2022-12-18T07:31:31;-1.10;99.90
7472;DHT22;3777;48.722;8.110;2022-12-18T07:33:58;-1.20;99.90
7472;DHT22;3777;48.722;8.110;2022-12-18T07:36:25;-1.20;99.90
7472;DHT22;3777;48.722;8.110;2022-12-18T07:38:52;-1.20;99.90
7472;DHT22;3777;48.722;8.110;2022-12-18T07:41:20;-1.30;99.90
7472;DHT22;3777;48.722;8.110;2022-12-18T07:43:48;-1.30;99.90
7472;DHT22;3777;48.722;8.110;2022-12-18T07:46:16;-1.30;99.90
7472;DHT22;3777;48.722;8.110;2022-12-18T07:48:43;-1.30;99.90
7472;DHT22;3777;48.722;8.110;2022-12-18T07:51:10;-1.30;99.90
7472;DHT22;3777;48.722;8.110;2022-12-18T07:53:40;-1.30;99.90
7472;DHT22;3777;48.722;8.110;2022-12-18T07:56:09;-1.20;99.90
7472;DHT22;3777;48.722;8.110;2022-12-18T07:58:37;-1.20;99.90
7472;DHT22;3777;48.722;8.110;2022-12-18T08:01:08;-1.10;99.90
7472;DHT22;3777;48.722;8.110;2022-12-18T08:03:35;-1.00;99.90
7472;DHT22;3777;48.722;8.110;2022-12-18T08:06:03;-0.90;99.90
7472;DHT22;3777;48.722;8.110;2022-12-18T08:08:32;-0.90;99.90
7472;DHT22;3777;48.722;8.110;2022-12-18T08:11:00;-0.90;99.90
7472;DHT22;3777;48.722;8.110;2022-12-18T08:13:27;-0.90;99.90
7472;DHT22;3777;48.722;8.110;2022-12-18T08:15:58;-0.80;99.90
7472;DHT22;3777;48.722;8.110;2022-12-18T08:18:27;-0.80;99.90
7472;DHT22;3777;48.722;8.110;2022-12-18T08:20:54;-0.70;99.90
7472;DHT22;3777;48.722;8.110;2022-12-18T08:23:21;-0.60;99.90
7472;DHT22;3777;48.722;8.110;2022-12-18T08:25:49;-0.90;99.90
7472;DHT22;3777;48.722;8.110;2022-12-18T08:28:17;-0.80;99.90
7472;DHT22;3777;48.722;8.110;2022-12-18T08:30:44;-0.80;99.90
7472;DHT22;3777;48.722;8.110;2022-12-18T08:33:10;-1.10;99.90
7472;DHT22;3777;48.722;8.110;2022-12-18T08:35:39;-1.40;99.90
7472;DHT22;3777;48.722;8.110;2022-12-18T08:38:06;-1.40;99.90
7472;DHT22;3777;48.722;8.110;2022-12-18T08:40:33;-1.30;99.90
7472;DHT22;3777;48.722;8.110;2022-12-18T08:42:59;-1.10;99.90
7472;DHT22;3777;48.722;8.110;2022-12-18T08:45:44;-1.00;99.90
7472;DHT22;3777;48.722;8.110;2022-12-18T08:48:11;-0.90;99.90
7472;DHT22;3777;48.722;8.110;2022-12-18T08:50:39;-0.70;99.90
7472;DHT22;3777;48.722;8.110;2022-12-18T08:53:06;-0.70;99.90
7472;DHT22;3777;48.722;8.110;2022-12-18T08:55:33;-0.60;99.90
7472;DHT22;3777;48.722;8.110;2022-12-18T08:58:00;-0.70;99.90
7472;DHT22;3777;48.722;8.110;2022-12-18T09:00:27;-0.60;99.90
7472;DHT22;3777;48.722;8.110;2022-12-18T09:02:54;-0.60;99.90
7472;DHT22;3777;48.722;8.110;2022-12-18T09:05:21;-0.50;99.90
7472;DHT22;3777;48.722;8.110;2022-12-18T09:07:49;-0.50;99.90
7472;DHT22;3777;48.722;8.110;2022-12-18T09:10:16;-0.30;99.90
7472;DHT22;3777;48.722;8.110;2022-12-18T09:12:43;-0.30;99.90
7472;DHT22;3777;48.722;8.110;2022-12-18T09:15:10;-0.20;99.90
7472;DHT22;3777;48.722;8.110;2022-12-18T09:17:37;-0.10;99.90
7472;DHT22;3777;48.722;8.110;2022-12-18T09:20:05;0.00;99.90
7472;DHT22;3777;48.722;8.110;2022-12-18T09:22:32;0.10;99.90
7472;DHT22;3777;48.722;8.110;2022-12-18T09:25:00;0.10;99.90
7472;DHT22;3777;48.722;8.110;2022-12-18T09:27:32;0.00;99.90
7472;DHT22;3777;48.722;8.110;2022-12-18T09:30:00;0.10;99.90
7472;DHT22;3777;48.722;8.110;2022-12-18T09:32:27;0.10;99.90
7472;DHT22;3777;48.722;8.110;2022-12-18T09:34:54;0.20;99.90
7472;DHT22;3777;48.722;8.110;2022-12-18T09:37:21;0.00;99.90
7472;DHT22;3777;48.722;8.110;2022-12-18T09:39:47;0.10;99.90
7472;DHT22;3777;48.722;8.110;2022-12-18T09:42:20;-0.20;99.90
7472;DHT22;3777;48.722;8.110;2022-12-18T09:44:50;-0.40;99.90
7472;DHT22;3777;48.722;8.110;2022-12-18T09:47:21;-0.30;99.90
7472;DHT22;3777;48.722;8.110;2022-12-18T09:49:54;-0.50;99.90
7472;DHT22;3777;48.722;8.110;2022-12-18T09:52:26;-0.80;99.90
7472;DHT22;3777;48.722;8.110;2022-12-18T09:54:58;-0.80;99.90
7472;DHT22;3777;48.722;8.110;2022-12-18T09:57:29;-0.60;99.90
7472;DHT22;3777;48.722;8.110;2022-12-18T10:00:04;-0.40;99.90
7472;DHT22;3777;48.722;8.110;2022-12-18T10:02:33;-0.50;99.90
7472;DHT22;3777;48.722;8.110;2022-12-18T10:05:06;-0.50;99.90
7472;DHT22;3777;48.722;8.110;2022-12-18T10:07:42;-0.30;99.90
7472;DHT22;3777;48.722;8.110;2022-12-18T10:10:19;-0.10;99.90
7472;DHT22;3777;48.722;8.110;2022-12-18T10:12:56;0.00;99.90
7472;DHT22;3777;48.722;8.110;2022-12-18T10:15:32;0.00;99.90
7472;DHT22;3777;48.722;8.110;2022-12-18T10:18:06;0.00;99.90
7472;DHT22;3777;48.722;8.110;2022-12-18T10:20:42;0.00;99.90
7472;DHT22;3777;48.722;8.110;2022-12-18T10:23:16;0.00;99.90
7472;DHT22;3777;48.722;8.110;2022-12-18T10:25:51;0.00;99.90
7472;DHT22;3777;48.722;8.110;2022-12-18T10:28:23;0.00;99.90
7472;DHT22;3777;48.722;8.110;2022-12-18T10:30:51;0.10;99.90
7472;DHT22;3777;48.722;8.110;2022-12-18T10:33:20;0.10;99.90
7472;DHT22;3777;48.722;8.110;2022-12-18T10:35:48;0.20;99.90
7472;DHT22;3777;48.722;8.110;2022-12-18T10:38:24;0.30;99.90
7472;DHT22;3777;48.722;8.110;2022-12-18T10:40:53;0.40;99.90
7472;DHT22;3777;48.722;8.110;2022-12-18T10:43:24;0.40;99.90
7472;DHT22;3777;48.722;8.110;2022-12-18T10:46:13;0.50;99.90
7472;DHT22;3777;48.722;8.110;2022-12-18T10:48:52;0.60;99.90
7472;DHT22;3777;48.722;8.110;2022-12-18T10:51:21;0.60;99.90
7472;DHT22;3777;48.722;8.110;2022-12-18T10:53:54;0.70;99.90
7472;DHT22;3777;48.722;8.110;2022-12-18T10:56:22;0.80;99.90
7472;DHT22;3777;48.722;8.110;2022-12-18T10:58:58;0.70;99.90
7472;DHT22;3777;48.722;8.110;2022-12-18T11:01:25;0.60;99.90
7472;DHT22;3777;48.722;8.110;2022-12-18T11:04:07;0.60;99.90
7472;DHT22;3777;48.722;8.110;2022-12-18T11:06:53;0.70;99.90
7472;DHT22;3777;48.722;8.110;2022-12-18T11:09:22;0.80;99.90
7472;DHT22;3777;48.722;8.110;2022-12-18T11:11:50;0.80;99.90
7472;DHT22;3777;48.722;8.110;2022-12-18T11:14:22;0.90;99.90
7472;DHT22;3777;48.722;8.110;2022-12-18T11:16:50;0.70;99.90
7472;DHT22;3777;48.722;8.110;2022-12-18T11:19:31;0.60;99.90
7472;DHT22;3777;48.722;8.110;2022-12-18T11:22:00;0.60;99.90
7472;DHT22;3777;48.722;8.110;2022-12-18T11:24:30;0.60;99.90
7472;DHT22;3777;48.722;8.110;2022-12-18T11:26:59;0.50;99.90
7472;DHT22;3777;48.722;8.110;2022-12-18T11:29:33;0.50;99.90
7472;DHT22;3777;48.722;8.110;2022-12-18T11:32:24;0.40;99.90
7472;DHT22;3777;48.722;8.110;2022-12-18T11:34:57;0.40;99.90
7472;DHT22;3777;48.722;8.110;2022-12-18T11:37:24;0.40;99.90
7472;DHT22;3777;48.722;8.110;2022-12-18T11:39:56;0.50;99.90
7472;DHT22;3777;48.722;8.110;2022-12-18T11:42:30;0.50;99.90
7472;DHT22;3777;48.722;8.110;2022-12-18T11:45:03;0.60;99.90
7472;DHT22;3777;48.722;8.110;2022-12-18T11:47:38;0.60;99.90
7472;DHT22;3777;48.722;8.110;2022-12-18T11:50:13;0.50;99.90
7472;DHT22;3777;48.722;8.110;2022-12-18T11:52:41;0.30;99.90
7472;DHT22;3777;48.722;8.110;2022-12-18T11:55:12;0.20;99.90
7472;DHT22;3777;48.722;8.110;2022-12-18T11:57:48;0.20;99.90
7472;DHT22;3777;48.722;8.110;2022-12-18T12:00:18;0.50;99.90
7472;DHT22;3777;48.722;8.110;2022-12-18T12:03:18;0.70;99.90
7472;DHT22;3777;48.722;8.110;2022-12-18T12:05:55;0.60;99.90
7472;DHT22;3777;48.722;8.110;2022-12-18T12:08:30;0.50;99.90
7472;DHT22;3777;48.722;8.110;2022-12-18T12:11:08;0.60;99.90
7472;DHT22;3777;48.722;8.110;2022-12-18T12:13:44;0.70;99.90
7472;DHT22;3777;48.722;8.110;2022-12-18T12:16:21;0.70;99.90
7472;DHT22;3777;48.722;8.110;2022-12-18T12:19:02;0.90;99.90
7472;DHT22;3777;48.722;8.110;2022-12-18T12:21:38;0.90;99.90
7472;DHT22;3777;48.722;8.110;2022-12-18T12:24:18;1.10;99.90
7472;DHT22;3777;48.722;8.110;2022-12-18T12:26:56;1.00;99.90
7472;DHT22;3777;48.722;8.110;2022-12-18T12:29:39;1.00;99.90
7472;DHT22;3777;48.722;8.110;2022-12-18T12:35:12;1.00;99.90
7472;DHT22;3777;48.722;8.110;2022-12-18T12:37:52;1.10;99.90
7472;DHT22;3777;48.722;8.110;2022-12-18T12:40:26;1.00;99.90
7472;DHT22;3777;48.722;8.110;2022-12-18T12:42:56;1.20;99.90
7472;DHT22;3777;48.722;8.110;2022-12-18T12:45:44;1.20;99.90
7472;DHT22;3777;48.722;8.110;2022-12-18T12:48:18;1.10;99.90
7472;DHT22;3777;48.722;8.110;2022-12-18T12:50:47;1.00;99.90
7472;DHT22;3777;48.722;8.110;2022-12-18T12:53:22;1.00;99.90
7472;DHT22;3777;48.722;8.110;2022-12-18T12:55:50;0.90;99.90
7472;DHT22;3777;48.722;8.110;2022-12-18T12:58:25;0.90;99.90
7472;DHT22;3777;48.722;8.110;2022-12-18T13:01:04;0.90;99.90
7472;DHT22;3777;48.722;8.110;2022-12-18T13:03:41;0.90;99.90
7472;DHT22;3777;48.722;8.110;2022-12-18T13:06:13;0.90;99.90
7472;DHT22;3777;48.722;8.110;2022-12-18T13:08:55;1.00;99.90
7472;DHT22;3777;48.722;8.110;2022-12-18T13:11:37;1.00;99.90
7472;DHT22;3777;48.722;8.110;2022-12-18T13:14:24;1.00;99.90
7472;DHT22;3777;48.722;8.110;2022-12-18T13:17:29;1.00;99.90
7472;DHT22;3777;48.722;8.110;2022-12-18T13:20:08;0.90;99.90
7472;DHT22;3777;48.722;8.110;2022-12-18T13:22:38;0.90;99.90
7472;DHT22;3777;48.722;8.110;2022-12-18T13:25:29;0.90;99.90
7472;DHT22;3777;48.722;8.110;2022-12-18T13:28:06;0.80;99.90
7472;DHT22;3777;48.722;8.110;2022-12-18T13:30:48;0.80;99.90
7472;DHT22;3777;48.722;8.110;2022-12-18T13:33:43;0.80;99.90
7472;DHT22;3777;48.722;8.110;2022-12-18T13:36:26;0.90;99.90
7472;DHT22;3777;48.722;8.110;2022-12-18T13:39:33;1.00;99.90
7472;DHT22;3777;48.722;8.110;2022-12-18T13:42:34;1.10;99.90
7472;DHT22;3777;48.722;8.110;2022-12-18T13:45:44;1.20;99.90
7472;DHT22;3777;48.722;8.110;2022-12-18T13:48:20;1.30;99.90
7472;DHT22;3777;48.722;8.110;2022-12-18T13:50:59;1.30;99.90
7472;DHT22;3777;48.722;8.110;2022-12-18T13:53:33;1.40;99.90
7472;DHT22;3777;48.722;8.110;2022-12-18T13:56:02;1.40;99.90
7472;DHT22;3777;48.722;8.110;2022-12-18T13:58:29;1.40;99.90
7472;DHT22;3777;48.722;8.110;2022-12-18T14:00:56;1.40;99.90
7472;DHT22;3777;48.722;8.110;2022-12-18T14:03:26;1.40;99.90
7472;DHT22;3777;48.722;8.110;2022-12-18T14:05:56;1.30;99.90
7472;DHT22;3777;48.722;8.110;2022-12-18T14:08:23;1.20;99.90
7472;DHT22;3777;48.722;8.110;2022-12-18T14:10:55;1.20;99.90
7472;DHT22;3777;48.722;8.110;2022-12-18T14:13:26;1.10;99.90
7472;DHT22;3777;48.722;8.110;2022-12-18T14:15:55;1.10;99.90
7472;DHT22;3777;48.722;8.110;2022-12-18T14:18:25;1.00;99.90
7472;DHT22;3777;48.722;8.110;2022-12-18T14:20:55;0.80;99.90
7472;DHT22;3777;48.722;8.110;2022-12-18T14:23:31;0.80;99.90
7472;DHT22;3777;48.722;8.110;2022-12-18T14:26:02;0.70;99.90
7472;DHT22;3777;48.722;8.110;2022-12-18T14:28:29;0.70;99.90
7472;DHT22;3777;48.722;8.110;2022-12-18T14:30:56;0.60;99.90
7472;DHT22;3777;48.722;8.110;2022-12-18T14:33:25;0.60;99.90
7472;DHT22;3777;48.722;8.110;2022-12-18T14:35:55;0.50;99.90
7472;DHT22;3777;48.722;8.110;2022-12-18T14:38:26;0.50;99.90
7472;DHT22;3777;48.722;8.110;2022-12-18T14:40:56;0.50;99.90
7472;DHT22;3777;48.722;8.110;2022-12-18T14:43:29;0.50;99.90
7472;DHT22;3777;48.722;8.110;2022-12-18T14:45:58;0.60;99.90
7472;DHT22;3777;48.722;8.110;2022-12-18T14:48:35;0.60;99.90
7472;DHT22;3777;48.722;8.110;2022-12-18T14:51:05;0.60;99.90
7472;DHT22;3777;48.722;8.110;2022-12-18T14:53:35;0.50;99.90
7472;DHT22;3777;48.722;8.110;2022-12-18T14:56:04;0.50;99.90
7472;DHT22;3777;48.722;8.110;2022-12-18T14:58:45;0.50;99.90
7472;DHT22;3777;48.722;8.110;2022-12-18T15:01:18;0.50;99.90
7472;DHT22;3777;48.722;8.110;2022-12-18T15:03:45;0.50;99.90
7472;DHT22;3777;48.722;8.110;2022-12-18T15:06:17;0.50;99.90
7472;DHT22;3777;48.722;8.110;2022-12-18T15:08:44;0.50;99.90
7472;DHT22;3777;48.722;8.110;2022-12-18T15:11:35;0.60;99.90
7472;DHT22;3777;48.722;8.110;2022-12-18T15:14:22;0.60;99.90
7472;DHT22;3777;48.722;8.110;2022-12-18T15:16:51;0.60;99.90
7472;DHT22;3777;48.722;8.110;2022-12-18T15:19:20;0.60;99.90
7472;DHT22;3777;48.722;8.110;2022-12-18T15:21:48;0.60;99.90
7472;DHT22;3777;48.722;8.110;2022-12-18T15:24:18;0.60;99.90
7472;DHT22;3777;48.722;8.110;2022-12-18T15:26:47;0.60;99.90
7472;DHT22;3777;48.722;8.110;2022-12-18T15:29:19;0.60;99.90
7472;DHT22;3777;48.722;8.110;2022-12-18T15:32:10;0.70;99.90
7472;DHT22;3777;48.722;8.110;2022-12-18T15:34:42;0.70;99.90
7472;DHT22;3777;48.722;8.110;2022-12-18T15:37:09;0.70;99.90
7472;DHT22;3777;48.722;8.110;2022-12-18T15:39:36;0.70;99.90
7472;DHT22;3777;48.722;8.110;2022-12-18T15:42:03;0.70;99.90
7472;DHT22;3777;48.722;8.110;2022-12-18T15:44:47;0.70;99.90
7472;DHT22;3777;48.722;8.110;2022-12-18T15:47:15;0.70;99.90
7472;DHT22;3777;48.722;8.110;2022-12-18T15:49:42;0.70;99.90
7472;DHT22;3777;48.722;8.110;2022-12-18T15:52:12;0.70;99.90
7472;DHT22;3777;48.722;8.110;2022-12-18T15:54:51;0.60;99.90
7472;DHT22;3777;48.722;8.110;2022-12-18T15:57:35;0.60;99.90
7472;DHT22;3777;48.722;8.110;2022-12-18T16:00:03;0.60;99.90
7472;DHT22;3777;48.722;8.110;2022-12-18T16:02:31;0.60;99.90
7472;DHT22;3777;48.722;8.110;2022-12-18T16:04:58;0.60;99.90
7472;DHT22;3777;48.722;8.110;2022-12-18T16:07:25;0.50;99.90
7472;DHT22;3777;48.722;8.110;2022-12-18T16:09:52;0.40;99.90
7472;DHT22;3777;48.722;8.110;2022-12-18T16:12:21;0.40;99.90
7472;DHT22;3777;48.722;8.110;2022-12-18T16:14:49;0.40;99.90
7472;DHT22;3777;48.722;8.110;2022-12-18T16:17:16;0.40;99.90
7472;DHT22;3777;48.722;8.110;2022-12-18T16:19:44;0.30;99.90
7472;DHT22;3777;48.722;8.110;2022-12-18T16:22:19;0.30;99.90
7472;DHT22;3777;48.722;8.110;2022-12-18T16:24:47;0.20;99.90
7472;DHT22;3777;48.722;8.110;2022-12-18T16:27:15;0.20;99.90
7472;DHT22;3777;48.722;8.110;2022-12-18T16:29:42;0.20;99.90
7472;DHT22;3777;48.722;8.110;2022-12-18T16:32:12;0.10;99.90
7472;DHT22;3777;48.722;8.110;2022-12-18T16:34:40;0.10;99.90
7472;DHT22;3777;48.722;8.110;2022-12-18T16:37:10;0.10;99.90